Dixon Entrance West - east of Langara: Past 24 Hour Conditions

 

Stony Rapids Airport

03:00 AM CST 01 August 2014
This table is a summary of hourly weather conditions for the past 24 hours.
Date / Time
(CST)
Wind(knots) Conditions Visibility(km) Pressure(kPa) Air tempC) Relative humidity(%) Dew pointC) Humidex
01 August 2014
3:00 WNW 2 Clear 13 102.0 15 76 11 *
2:00 NW 2 Haze 8 102.0 16 70 11 *
1:00 WNW 2 Haze 8 101.9 15 74 11 *
0:00 W 3 Haze 5 101.9 15 73 10 *
31 July 2014
23:00 W 4 Haze 4 101.8 15 76 11 *
22:00 W 3 Haze 3 101.8 15 78 12 *
21:00 N/A N/A N/A N/A N/A N/A N/A *
20:00 NNW 3 Haze 2 101.7 22 61 14 25
19:00 NW 2 Haze 3 101.7 23 66 17 28
18:00 calm Haze 4 101.7 23 67 16 28
17:00 NW 5 Light Rain 16 101.7 22 69 16 26
16:00 NW 8 gust 17 N/A 16 101.7 22 58 14 26
15:00 W 4 Mostly Cloudy 16 101.6 26 47 14 29
14:00 SW 4 Mostly Cloudy 16 101.6 26 46 14 30
13:00 NW 2 Mostly Cloudy 16 101.6 25 50 14 28
12:00 WNW 6 Sunny 16 101.6 25 51 14 28
11:00 W 8 Sunny 16 101.6 24 56 15 27
10:00 WNW 8 gust 16 Mainly Sunny 15 101.6 22 61 15 26
9:00 W 5 Cloudy 16 101.6 21 62 13 *
8:00 E 3 Cloudy 16 101.5 20 67 14 *
7:00 calm Haze 6 101.4 19 72 14 *
6:00 WNW 4 Mostly Cloudy 11 101.4 18 78 14 *
5:00 NNE 2 Sunny 16 101.4 15 80 12 *
4:00 S 2 Clear 16 101.4 17 70 12 *
3:00 SW 6 Clear 16 101.4 17 69 12 *
 
Map of Mackenzie - Mackenzie River marine weather areas Great Slave Lake - 45141 Great Slave Lake North Arm - 45150 Herschel Island Komakuk Beach Shingle Point Airport Aklavik Airport Cape Parry Airport Fort Good Hope Airport Tulita Airport Fort Providence Fort Reliance Fort Resolution Airport Fort Simpson Airport Hay River/Merlyn Carter Airport Inner Whaleback Rocks Inuvik Airport Keats Point Norman Wells Airport Paulatuk Airport Pelly Island Tuktoyaktuk Airport Wrigley Airport Yellowknife Airport Kugluktuk Airport Hat Island Cambridge Bay Airport Cape Peel West Stefansson Island Ulukhaktok Airport Sachs Harbour Airport Thomsen River Egg Island Fort Chipewyan Airport Stony Rapids Airport Liverpool Bay Little Chicago Lutselke Airport Storm Hills Croker River Prairie River Uranium City Bathurst Inlet Gateshead Island
Legend: buoyBuoy land stationLand Station